Time;durP1;ratioP1;P1;durP2;ratioP2;P2;SDS_P1;SDS_P2;PMS_P1;PMS_P2;Temp;Humidity;BMP_temperature;BMP_pressure;BME280_temperature;BME280_humidity;BME280_pressure;Samples;Min_cycle;Max_cycle;Signal;HPM_P1;HPM_P2
2022/03/25 00:01:15;;;;;;;11.20;7.33;;;4.20;99.90;;;;;;4955481;28;20347;-84
2022/03/25 00:03:41;;;;;;;18.50;8.40;;;4.10;99.90;;;;;;4954841;28;20236;-84
2022/03/25 00:06:07;;;;;;;15.97;7.53;;;4.00;99.90;;;;;;4955448;28;20302;-86
2022/03/25 00:08:33;;;;;;;15.20;7.67;;;4.00;99.90;;;;;;4956750;29;20234;-85
2022/03/25 00:10:58;;;;;;;16.90;7.80;;;4.00;99.90;;;;;;4956609;29;20188;-85
2022/03/25 00:13:25;;;;;;;14.23;7.60;;;4.10;99.90;;;;;;4955322;29;20184;-86
2022/03/25 00:15:50;;;;;;;13.40;7.73;;;4.10;99.90;;;;;;4956713;29;20274;-85
2022/03/25 00:18:16;;;;;;;13.40;7.07;;;4.20;99.90;;;;;;4971780;28;20220;-85
2022/03/25 00:20:42;;;;;;;13.70;8.10;;;4.10;99.90;;;;;;4955416;28;20645;-86
2022/03/25 00:23:08;;;;;;;13.40;7.10;;;4.20;99.90;;;;;;4955504;29;20187;-86
2022/03/25 00:25:34;;;;;;;12.47;7.57;;;4.20;99.90;;;;;;4955166;29;20223;-84
2022/03/25 00:28:00;;;;;;;15.30;7.00;;;4.20;99.90;;;;;;4955053;29;20175;-85
2022/03/25 00:30:26;;;;;;;13.87;7.93;;;4.20;99.90;;;;;;4956516;29;20675;-86
2022/03/25 00:32:52;;;;;;;13.93;7.40;;;4.10;99.90;;;;;;4971377;28;20220;-85
2022/03/25 00:35:18;;;;;;;12.60;7.23;;;4.20;99.90;;;;;;4955221;28;20290;-83
2022/03/25 00:37:44;;;;;;;21.87;8.03;;;4.00;99.90;;;;;;4955277;29;20177;-86
2022/03/25 00:40:11;;;;;;;23.80;7.67;;;3.90;99.90;;;;;;4955243;29;20692;-86
2022/03/25 00:42:37;;;;;;;13.10;7.47;;;3.70;99.90;;;;;;4970982;28;20526;-85
2022/03/25 00:45:03;;;;;;;15.37;7.47;;;3.70;99.90;;;;;;4956200;29;20207;-84
2022/03/25 00:47:29;;;;;;;12.03;7.30;;;3.70;99.90;;;;;;4971221;28;20186;-86
2022/03/25 00:49:55;;;;;;;14.30;7.30;;;3.70;99.90;;;;;;4954885;28;20191;-86
2022/03/25 00:52:22;;;;;;;13.20;6.67;;;3.70;99.90;;;;;;4955100;29;20629;-86
2022/03/25 00:54:48;;;;;;;16.60;7.37;;;3.70;99.90;;;;;;4970994;28;20185;-85
2022/03/25 00:57:14;;;;;;;12.73;6.97;;;3.70;99.90;;;;;;4956388;29;20169;-85
2022/03/25 00:59:39;;;;;;;16.77;7.30;;;3.70;99.90;;;;;;4955094;28;20193;-85
2022/03/25 01:02:05;;;;;;;15.10;7.13;;;3.40;99.90;;;;;;4956159;29;20192;-85
2022/03/25 01:04:31;;;;;;;12.13;7.27;;;3.40;99.90;;;;;;4954622;28;20601;-85
2022/03/25 01:06:57;;;;;;;14.87;7.80;;;3.30;99.90;;;;;;4955145;28;20182;-85
2022/03/25 01:09:22;;;;;;;14.63;7.23;;;3.30;99.90;;;;;;4958333;29;20190;-85
2022/03/25 01:11:49;;;;;;;16.53;8.03;;;3.40;99.90;;;;;;4959556;29;20192;-86
2022/03/25 01:14:14;;;;;;;18.47;7.63;;;3.50;99.90;;;;;;4959535;29;20269;-86
2022/03/25 01:16:40;;;;;;;20.10;8.10;;;3.50;99.90;;;;;;4958423;28;20303;-85
2022/03/25 01:19:06;;;;;;;13.23;7.53;;;3.40;99.90;;;;;;4958358;29;20631;-85
2022/03/25 01:21:32;;;;;;;13.93;6.73;;;3.40;99.90;;;;;;4974092;28;20191;-85
2022/03/25 01:24:02;;;;;;;12.03;6.93;;;3.30;99.90;;;;;;4959514;29;20176;-84
2022/03/25 01:26:28;;;;;;;14.90;7.10;;;3.30;99.90;;;;;;4958007;29;20269;-84
2022/03/25 01:28:53;;;;;;;15.63;7.27;;;3.20;99.90;;;;;;4958254;29;20541;-85
2022/03/25 01:31:20;;;;;;;15.93;7.93;;;3.20;99.90;;;;;;4958053;28;20208;-84
2022/03/25 01:33:45;;;;;;;12.70;7.87;;;3.10;99.90;;;;;;4974170;28;20174;-86
2022/03/25 01:36:11;;;;;;;16.97;7.10;;;3.10;99.90;;;;;;4973996;28;20181;-85
2022/03/25 01:38:37;;;;;;;15.63;7.77;;;3.20;99.90;;;;;;4957854;29;20272;-85
2022/03/25 01:41:03;;;;;;;16.07;7.50;;;3.20;99.90;;;;;;4957760;28;20189;-83
2022/03/25 01:43:29;;;;;;;14.27;6.87;;;3.30;99.90;;;;;;4957785;29;20284;-85
2022/03/25 01:45:55;;;;;;;14.90;6.93;;;3.20;99.90;;;;;;4973937;28;20605;-85
2022/03/25 01:48:22;;;;;;;13.70;7.13;;;3.30;99.90;;;;;;4958967;29;20161;-85
2022/03/25 01:50:48;;;;;;;11.50;6.87;;;3.20;99.90;;;;;;4958936;29;20181;-85
2022/03/25 01:53:19;;;;;;;15.30;6.90;;;3.20;99.90;;;;;;4958867;29;20175;-85
2022/03/25 01:56:00;;;;;;;16.57;7.60;;;3.00;99.90;;;;;;4957516;29;20273;-86
2022/03/25 01:58:28;;;;;;;16.50;7.53;;;3.00;99.90;;;;;;4957537;29;20173;-85
2022/03/25 02:00:54;;;;;;;13.77;7.40;;;3.00;99.90;;;;;;4957575;28;20218;-85
2022/03/25 02:03:21;;;;;;;12.90;7.40;;;3.10;99.90;;;;;;4973690;28;20233;-85
2022/03/25 02:05:48;;;;;;;12.63;7.57;;;3.10;99.90;;;;;;4958467;29;20212;-85
2022/03/25 02:08:15;;;;;;;15.37;7.70;;;3.00;99.90;;;;;;4973640;28;20184;-85
2022/03/25 02:10:41;;;;;;;12.47;7.07;;;2.90;99.90;;;;;;4957492;28;20187;-86
2022/03/25 02:13:11;;;;;;;14.50;7.17;;;2.80;99.90;;;;;;4958589;29;20563;-86
2022/03/25 02:15:43;;;;;;;14.60;6.80;;;2.80;99.90;;;;;;4973506;28;20181;-85
2022/03/25 02:18:15;;;;;;;18.43;8.17;;;2.80;99.90;;;;;;4957413;29;20193;-85
2022/03/25 02:20:42;;;;;;;13.83;8.30;;;2.90;99.90;;;;;;4957631;28;20619;-86
2022/03/25 02:23:08;;;;;;;13.20;7.70;;;3.00;99.90;;;;;;4957160;29;20203;-85
2022/03/25 02:25:35;;;;;;;11.87;6.50;;;3.00;99.90;;;;;;4973197;28;20300;-85
2022/03/25 02:28:04;;;;;;;15.63;7.83;;;2.90;99.90;;;;;;4973144;28;20460;-85
2022/03/25 02:30:31;;;;;;;12.70;6.80;;;2.90;99.90;;;;;;4973114;28;20185;-86
2022/03/25 02:33:01;;;;;;;12.07;6.87;;;2.90;99.90;;;;;;4956607;29;20524;-85
2022/03/25 02:35:47;;;;;;;13.43;7.67;;;2.70;99.90;;;;;;4958014;29;20525;-87
2022/03/25 02:38:17;;;;;;;14.20;7.40;;;2.70;99.90;;;;;;4956862;29;20170;-83
2022/03/25 02:40:43;;;;;;;15.67;7.40;;;2.70;99.90;;;;;;4957849;28;20612;-83
2022/03/25 02:43:13;;;;;;;15.27;7.57;;;2.70;99.90;;;;;;4957726;29;20216;-85
2022/03/25 02:45:39;;;;;;;17.83;7.63;;;2.60;99.90;;;;;;4956351;29;20220;-84
2022/03/25 02:48:06;;;;;;;13.90;7.33;;;2.60;99.90;;;;;;4957835;29;20181;-85
2022/03/25 02:50:32;;;;;;;15.80;7.80;;;2.60;99.90;;;;;;4956490;29;20627;-85
2022/03/25 02:52:59;;;;;;;18.23;8.23;;;2.60;99.90;;;;;;4957595;29;20181;-85
2022/03/25 02:55:25;;;;;;;12.37;7.50;;;2.40;99.90;;;;;;4972558;28;20255;-86
2022/03/25 02:57:52;;;;;;;18.20;8.10;;;2.30;99.90;;;;;;4956237;29;20177;-83
2022/03/25 03:00:19;;;;;;;11.93;8.07;;;2.30;99.90;;;;;;4956255;29;20666;-83
2022/03/25 03:02:47;;;;;;;13.87;7.33;;;2.30;99.90;;;;;;4957245;29;20200;-83
2022/03/25 03:05:14;;;;;;;13.40;7.43;;;2.40;99.90;;;;;;4956180;29;20698;-83
2022/03/25 03:07:40;;;;;;;14.80;7.80;;;2.40;99.90;;;;;;4957600;29;20252;-84
2022/03/25 03:10:07;;;;;;;14.13;7.63;;;2.50;99.90;;;;;;4956094;29;20268;-83
2022/03/25 03:12:34;;;;;;;13.83;7.70;;;2.40;99.90;;;;;;4956031;28;20240;-83
2022/03/25 03:15:01;;;;;;;12.77;7.47;;;2.50;99.90;;;;;;4956060;29;20187;-83
2022/03/25 03:17:27;;;;;;;11.13;7.00;;;2.50;99.90;;;;;;4956038;29;20181;-84
2022/03/25 03:19:54;;;;;;;15.67;8.03;;;2.40;99.90;;;;;;4957235;29;20613;-83
2022/03/25 03:22:20;;;;;;;13.63;7.40;;;2.40;99.90;;;;;;4957225;29;20178;-85
2022/03/25 03:24:45;;;;;;;15.43;7.70;;;2.20;99.90;;;;;;4955868;29;20215;-84
2022/03/25 03:27:12;;;;;;;16.93;8.10;;;2.20;99.90;;;;;;4955674;29;20647;-85
2022/03/25 03:29:38;;;;;;;12.63;7.50;;;2.30;99.90;;;;;;4955784;29;20209;-84
2022/03/25 03:32:05;;;;;;;17.87;9.00;;;2.30;99.90;;;;;;4954647;28;20221;-84
2022/03/25 03:34:32;;;;;;;14.60;8.33;;;2.20;99.90;;;;;;4956946;29;20194;-85
2022/03/25 03:36:58;;;;;;;18.23;8.57;;;2.20;99.90;;;;;;4957032;29;20175;-85
2022/03/25 03:39:24;;;;;;;15.33;8.57;;;2.20;99.90;;;;;;4956775;29;20184;-85
2022/03/25 03:41:50;;;;;;;14.87;7.70;;;2.20;99.90;;;;;;4956711;29;20506;-84
2022/03/25 03:44:15;;;;;;;14.07;8.27;;;2.20;99.90;;;;;;4956811;29;20181;-82
2022/03/25 03:46:41;;;;;;;12.37;7.23;;;2.30;99.90;;;;;;4955411;28;20216;-82
2022/03/25 03:49:07;;;;;;;13.93;7.57;;;2.30;99.90;;;;;;4956780;29;20176;-82
2022/03/25 03:51:33;;;;;;;16.60;9.30;;;2.30;99.90;;;;;;4955436;28;20208;-83
2022/03/25 03:54:00;;;;;;;16.43;8.07;;;2.20;99.90;;;;;;4971614;28;20181;-82
2022/03/25 03:56:26;;;;;;;13.83;8.13;;;2.20;99.90;;;;;;4955242;28;20228;-83
2022/03/25 03:58:52;;;;;;;15.13;8.00;;;2.20;99.90;;;;;;4955453;29;20180;-83
2022/03/25 04:01:17;;;;;;;13.20;8.00;;;2.20;99.90;;;;;;4955420;29;20208;-84
2022/03/25 04:03:43;;;;;;;15.70;7.90;;;2.30;99.90;;;;;;4956303;29;20251;-83
2022/03/25 04:06:09;;;;;;;13.57;7.97;;;2.30;99.90;;;;;;4971272;28;20260;-84
2022/03/25 04:08:35;;;;;;;14.77;7.83;;;2.30;99.90;;;;;;4955302;29;20173;-83
2022/03/25 04:11:03;;;;;;;12.87;8.30;;;2.30;99.90;;;;;;4955118;28;20191;-85
2022/03/25 04:13:29;;;;;;;13.40;8.13;;;2.20;99.90;;;;;;4956498;28;20197;-85
2022/03/25 04:15:55;;;;;;;12.97;7.83;;;2.10;99.90;;;;;;4956571;29;20259;-85
2022/03/25 04:18:22;;;;;;;14.10;8.10;;;2.10;99.90;;;;;;4956501;29;20252;-85
2022/03/25 04:20:49;;;;;;;16.97;9.20;;;2.10;99.90;;;;;;4955369;28;20212;-85
2022/03/25 04:23:16;;;;;;;14.03;8.03;;;2.10;99.90;;;;;;4956365;29;20196;-85
2022/03/25 04:25:41;;;;;;;13.93;7.57;;;2.10;99.90;;;;;;4956302;29;20263;-84
2022/03/25 04:28:07;;;;;;;18.17;8.50;;;2.00;99.90;;;;;;4971551;28;20609;-85
2022/03/25 04:30:35;;;;;;;15.30;8.73;;;2.00;99.90;;;;;;4956503;29;20523;-84
2022/03/25 04:33:02;;;;;;;13.33;7.97;;;1.90;99.90;;;;;;4955168;29;20538;-85
2022/03/25 04:35:28;;;;;;;15.07;8.40;;;1.90;99.90;;;;;;4956519;29;20519;-86
2022/03/25 04:37:55;;;;;;;13.03;8.70;;;2.00;99.90;;;;;;4955135;29;20182;-84
2022/03/25 04:40:22;;;;;;;14.90;8.50;;;2.00;99.90;;;;;;4956414;29;20256;-85
2022/03/25 04:42:49;;;;;;;15.10;8.53;;;2.00;99.90;;;;;;4957665;28;20260;-84
2022/03/25 04:45:16;;;;;;;17.33;8.97;;;2.00;99.90;;;;;;4960027;29;20201;-85
2022/03/25 04:47:42;;;;;;;16.57;8.60;;;2.10;99.90;;;;;;4960047;29;20171;-85
2022/03/25 04:50:09;;;;;;;17.73;8.73;;;2.10;99.90;;;;;;4958837;29;20635;-83
2022/03/25 04:52:35;;;;;;;15.43;7.97;;;2.10;99.90;;;;;;4959702;29;20177;-84
2022/03/25 04:55:01;;;;;;;15.43;8.77;;;2.10;99.90;;;;;;4959891;29;20650;-85
2022/03/25 04:57:27;;;;;;;15.37;8.37;;;2.10;99.90;;;;;;4959970;29;20183;-85
2022/03/25 04:59:53;;;;;;;17.23;8.50;;;2.10;99.90;;;;;;4958653;29;20181;-85
2022/03/25 05:02:18;;;;;;;16.97;8.33;;;2.10;99.90;;;;;;4959753;29;20188;-84
2022/03/25 05:04:44;;;;;;;14.37;8.37;;;2.00;99.90;;;;;;4974437;28;20276;-84
2022/03/25 05:07:17;;;;;;;14.77;8.20;;;2.00;99.90;;;;;;4958315;28;20217;-85
2022/03/25 05:09:43;;;;;;;14.03;8.53;;;2.10;99.90;;;;;;4959759;29;20175;-83
2022/03/25 05:12:09;;;;;;;16.87;8.23;;;2.10;99.90;;;;;;4994470;28;20199;-84
2022/03/25 05:14:35;;;;;;;13.80;7.67;;;2.00;99.90;;;;;;4998245;28;20255;-85
2022/03/25 05:17:01;;;;;;;17.00;8.17;;;2.00;99.90;;;;;;4997189;28;20187;-85
2022/03/25 05:19:27;;;;;;;17.30;8.37;;;1.90;99.90;;;;;;4998104;28;20164;-83
2022/03/25 05:21:52;;;;;;;20.10;8.53;;;1.90;99.90;;;;;;4996511;28;20546;-82
2022/03/25 05:24:18;;;;;;;14.43;8.20;;;1.90;99.90;;;;;;4994862;28;20223;-84
2022/03/25 05:26:45;;;;;;;17.10;8.30;;;1.90;99.90;;;;;;4995659;28;20577;-83
2022/03/25 05:29:11;;;;;;;13.80;9.23;;;2.00;99.90;;;;;;4997813;28;20172;-83
2022/03/25 05:31:37;;;;;;;17.20;8.33;;;2.00;99.90;;;;;;4996467;28;20531;-83
2022/03/25 05:34:06;;;;;;;21.60;8.57;;;2.00;99.90;;;;;;4996564;28;20218;-83
2022/03/25 05:36:33;;;;;;;16.23;8.37;;;2.00;99.90;;;;;;4997580;28;20186;-84
2022/03/25 05:39:00;;;;;;;15.53;8.03;;;2.00;99.90;;;;;;4997719;28;20179;-83
2022/03/25 05:41:27;;;;;;;16.57;8.50;;;2.00;99.90;;;;;;4997611;28;20606;-84
2022/03/25 05:43:53;;;;;;;14.97;8.10;;;2.00;99.90;;;;;;4997538;28;20512;-84
2022/03/25 05:46:19;;;;;;;17.20;8.57;;;2.00;99.90;;;;;;4996149;28;20681;-84
2022/03/25 05:48:46;;;;;;;16.43;8.83;;;2.00;99.90;;;;;;4996128;28;20209;-83
2022/03/25 05:51:12;;;;;;;15.20;8.43;;;1.80;99.90;;;;;;4996030;28;20661;-83
2022/03/25 05:53:39;;;;;;;15.17;9.00;;;1.80;99.90;;;;;;4995399;28;20185;-82
2022/03/25 05:56:06;;;;;;;16.03;9.07;;;1.70;99.90;;;;;;4996913;28;20591;-83
2022/03/25 05:58:33;;;;;;;14.90;8.90;;;1.60;99.90;;;;;;4996148;28;20513;-84
2022/03/25 06:01:00;;;;;;;19.53;8.80;;;1.60;99.90;;;;;;4997159;28;20598;-83
2022/03/25 06:03:26;;;;;;;16.47;8.83;;;1.70;99.90;;;;;;4995513;28;20236;-83
2022/03/25 06:05:52;;;;;;;18.70;9.13;;;1.70;99.90;;;;;;4977272;28;20656;-82
2022/03/25 06:08:18;;;;;;;14.93;8.87;;;1.80;99.90;;;;;;4975969;28;20180;-83
2022/03/25 06:10:43;;;;;;;15.80;9.00;;;1.80;99.90;;;;;;4977332;28;20180;-82
2022/03/25 06:13:09;;;;;;;16.60;8.67;;;1.90;99.90;;;;;;4976248;28;20208;-82
2022/03/25 06:15:35;;;;;;;16.37;9.07;;;2.00;99.90;;;;;;4977379;28;20663;-82
2022/03/25 06:18:00;;;;;;;20.20;10.00;;;2.10;99.90;;;;;;4977294;28;20611;-82
2022/03/25 06:20:29;;;;;;;17.87;9.50;;;2.30;99.90;;;;;;4977643;28;20525;-82
2022/03/25 06:22:56;;;;;;;16.07;8.90;;;2.30;99.90;;;;;;4978305;28;20208;-86
2022/03/25 06:25:22;;;;;;;16.23;9.23;;;2.40;99.90;;;;;;4976536;28;20201;-85
2022/03/25 06:27:50;;;;;;;14.93;9.33;;;2.40;99.90;;;;;;4976454;28;20230;-85
2022/03/25 06:30:17;;;;;;;17.80;9.80;;;2.40;99.90;;;;;;4976788;28;20191;-85
2022/03/25 06:32:43;;;;;;;16.70;9.83;;;2.50;99.90;;;;;;4975984;28;20639;-86
2022/03/25 06:37:45;;;;;;;19.33;10.83;;;2.60;99.90;;;;;;5272495;23;20488;-82
2022/03/25 06:40:11;;;;;;;17.60;9.93;;;2.70;99.90;;;;;;4968393;28;20179;-82
2022/03/25 06:42:38;;;;;;;17.63;9.87;;;2.80;99.90;;;;;;4975381;28;20184;-82
2022/03/25 06:45:06;;;;;;;18.20;9.50;;;3.00;99.90;;;;;;4972837;28;20186;-82
2022/03/25 06:47:32;;;;;;;17.47;9.40;;;3.10;99.90;;;;;;4957059;28;20194;-82
2022/03/25 06:49:58;;;;;;;14.43;9.57;;;3.10;99.90;;;;;;4957439;28;20174;-83
2022/03/25 06:52:25;;;;;;;17.47;9.77;;;3.20;99.90;;;;;;4956958;28;20208;-82
2022/03/25 06:54:51;;;;;;;21.67;9.60;;;3.30;99.90;;;;;;4957214;28;20206;-82
2022/03/25 06:57:17;;;;;;;14.73;9.13;;;3.50;99.90;;;;;;4957182;28;20602;-82
2022/03/25 06:59:42;;;;;;;18.73;10.90;;;3.60;99.90;;;;;;4956007;28;20185;-81
2022/03/25 07:02:10;;;;;;;18.57;9.90;;;3.70;99.90;;;;;;4957085;28;20547;-82
2022/03/25 07:04:37;;;;;;;17.20;9.97;;;3.80;99.90;;;;;;4957266;28;20513;-82
2022/03/25 07:07:04;;;;;;;19.80;9.90;;;4.00;99.90;;;;;;4963379;28;20646;-82
2022/03/25 07:09:31;;;;;;;19.57;10.73;;;4.10;99.90;;;;;;4976095;28;20180;-82
2022/03/25 07:11:57;;;;;;;21.33;10.40;;;4.20;99.90;;;;;;4991374;28;20521;-80
2022/03/25 07:14:23;;;;;;;17.93;11.03;;;4.30;99.90;;;;;;4972092;28;20184;-82
2022/03/25 07:16:48;;;;;;;18.07;10.53;;;4.50;99.90;;;;;;4955500;29;20183;-81
2022/03/25 07:19:14;;;;;;;19.50;10.90;;;4.50;99.90;;;;;;4956415;28;20197;-81
2022/03/25 07:21:40;;;;;;;18.30;10.70;;;4.70;99.90;;;;;;4956363;28;20165;-82
2022/03/25 07:24:06;;;;;;;23.07;11.60;;;4.80;99.90;;;;;;4956742;28;20178;-81
2022/03/25 07:26:32;;;;;;;18.93;11.90;;;4.90;99.90;;;;;;4955325;29;20303;-82
2022/03/25 07:28:58;;;;;;;21.53;11.50;;;5.00;99.90;;;;;;4956128;28;20217;-81
2022/03/25 07:31:28;;;;;;;20.57;11.20;;;5.10;99.90;;;;;;4956630;28;20165;-82
2022/03/25 07:33:57;;;;;;;21.63;12.13;;;5.20;99.90;;;;;;4956635;28;20166;-82
2022/03/25 07:36:23;;;;;;;21.57;12.70;;;5.30;99.90;;;;;;4958098;28;20212;-82
2022/03/25 07:38:49;;;;;;;22.40;11.97;;;5.40;99.90;;;;;;4974458;28;20239;-82
2022/03/25 07:41:15;;;;;;;20.87;11.50;;;5.50;99.90;;;;;;4974532;28;20552;-82
2022/03/25 07:43:41;;;;;;;22.03;11.97;;;5.70;99.90;;;;;;4990732;28;20268;-81
2022/03/25 07:46:07;;;;;;;21.90;10.73;;;5.70;99.90;;;;;;4974419;28;20216;-82
2022/03/25 07:48:33;;;;;;;21.73;13.10;;;5.90;99.90;;;;;;4975575;28;20190;-82
2022/03/25 07:50:58;;;;;;;19.40;12.17;;;6.00;99.90;;;;;;4975762;28;20611;-83
2022/03/25 07:53:24;;;;;;;25.83;12.50;;;6.10;99.90;;;;;;4956835;28;20181;-82
2022/03/25 07:55:51;;;;;;;21.53;12.17;;;6.30;99.90;;;;;;4956123;28;20196;-81
2022/03/25 07:58:21;;;;;;;21.10;12.97;;;6.40;99.90;;;;;;4956166;28;20204;-80
2022/03/25 08:00:51;;;;;;;18.77;12.17;;;6.50;99.90;;;;;;4956199;28;20264;-81
2022/03/25 08:03:18;;;;;;;24.67;13.90;;;6.70;99.90;;;;;;4956050;28;20256;-81
2022/03/25 08:05:45;;;;;;;24.40;12.77;;;6.80;99.90;;;;;;4956180;28;20288;-81
2022/03/25 08:08:11;;;;;;;20.13;12.47;;;6.90;99.90;;;;;;4972038;28;20172;-80
2022/03/25 08:10:39;;;;;;;24.63;13.13;;;7.00;99.90;;;;;;4975623;28;20238;-80
2022/03/25 08:13:05;;;;;;;19.43;12.37;;;7.10;99.90;;;;;;4974230;28;20164;-81
2022/03/25 08:15:32;;;;;;;24.63;13.40;;;7.30;99.90;;;;;;4975413;28;20207;-83
2022/03/25 08:17:59;;;;;;;22.73;12.70;;;7.30;99.90;;;;;;4975415;28;20263;-81
2022/03/25 08:20:41;;;;;;;22.43;14.37;;;7.40;99.90;;;;;;4976954;28;20212;-82
2022/03/25 08:23:13;;;;;;;24.47;13.77;;;7.50;99.90;;;;;;4977081;28;20181;-81
2022/03/25 08:28:25;;;;;;;21.23;13.43;;;7.80;99.90;;;;;;4977711;28;20175;-83
2022/03/25 08:30:51;;;;;;;24.30;14.40;;;8.00;99.90;;;;;;4978945;28;20160;-83
2022/03/25 08:33:17;;;;;;;22.37;12.47;;;8.10;99.90;;;;;;4978162;28;20235;-82
2022/03/25 08:35:44;;;;;;;20.83;12.77;;;8.30;99.90;;;;;;4977262;28;20181;-83
2022/03/25 08:38:11;;;;;;;22.73;13.20;;;8.40;99.90;;;;;;4978705;28;20601;-80
2022/03/25 08:40:38;;;;;;;24.80;13.63;;;8.50;99.90;;;;;;4972710;28;20232;-81
2022/03/25 08:43:05;;;;;;;26.57;13.77;;;8.80;99.90;;;;;;4959325;28;20708;-82
2022/03/25 08:45:32;;;;;;;23.53;13.17;;;9.00;99.90;;;;;;4958775;28;20244;-81
2022/03/25 08:47:58;;;;;;;22.63;12.47;;;9.20;99.90;;;;;;4985186;28;20177;-82
2022/03/25 08:50:25;;;;;;;22.23;13.13;;;9.30;99.90;;;;;;4978917;28;20184;-81
2022/03/25 08:52:52;;;;;;;22.73;13.20;;;9.40;98.90;;;;;;4961281;28;20180;-82
2022/03/25 08:55:20;;;;;;;25.53;13.53;;;9.60;98.30;;;;;;4959568;28;20612;-82
2022/03/25 08:57:47;;;;;;;22.90;13.20;;;9.70;98.90;;;;;;4958978;28;20180;-82
2022/03/25 09:00:15;;;;;;;23.07;13.83;;;9.90;99.00;;;;;;4959144;28;20177;-82
2022/03/25 09:02:43;;;;;;;30.10;13.33;;;10.00;98.60;;;;;;4958749;28;20608;-81
2022/03/25 09:05:12;;;;;;;22.63;14.30;;;10.10;98.80;;;;;;4959110;28;20187;-82
2022/03/25 09:07:39;;;;;;;23.80;13.27;;;10.10;99.40;;;;;;4958796;28;20208;-81
2022/03/25 09:10:06;;;;;;;27.20;13.70;;;10.20;98.30;;;;;;4958857;28;20182;-82
2022/03/25 09:12:33;;;;;;;20.60;12.53;;;10.30;97.20;;;;;;4958456;28;20177;-80
2022/03/25 09:14:59;;;;;;;22.33;13.17;;;10.40;97.20;;;;;;4967274;28;20180;-81
2022/03/25 09:17:25;;;;;;;21.53;13.33;;;10.50;97.10;;;;;;4978268;28;20181;-82
2022/03/25 09:19:51;;;;;;;25.10;14.07;;;10.70;96.50;;;;;;4965043;28;20635;-82
2022/03/25 09:22:17;;;;;;;23.40;12.83;;;10.80;95.70;;;;;;4973155;28;20239;-82
2022/03/25 09:24:43;;;;;;;24.33;14.00;;;10.90;96.30;;;;;;4958217;28;20264;-81
2022/03/25 09:27:08;;;;;;;29.30;14.50;;;11.10;94.60;;;;;;4958608;28;20220;-79
2022/03/25 09:29:34;;;;;;;28.33;13.87;;;11.30;93.60;;;;;;4958506;28;20185;-80
2022/03/25 09:32:00;;;;;;;21.55;12.93;;;11.40;94.00;;;;;;4958543;28;20184;-79
2022/03/25 09:37:10;;;;;;;29.02;15.93;;;11.60;94.20;;;;;;4958289;29;20295;-79
2022/03/25 09:39:36;;;;;;;27.40;15.77;;;11.60;94.70;;;;;;4958239;28;20633;-79
2022/03/25 09:42:04;;;;;;;30.20;16.43;;;11.80;93.90;;;;;;4957670;28;20176;-79
2022/03/25 09:44:32;;;;;;;30.07;16.23;;;11.80;93.20;;;;;;4963535;28;20185;-80
2022/03/25 09:46:58;;;;;;;29.92;16.92;;;11.90;93.60;;;;;;4977516;28;20204;-79
2022/03/25 09:49:23;;;;;;;31.98;17.95;;;12.00;93.00;;;;;;4977459;28;20275;-82
2022/03/25 09:51:49;;;;;;;33.40;15.60;;;12.20;92.90;;;;;;4977605;28;20173;-79
2022/03/25 09:54:17;;;;;;;33.80;18.05;;;12.40;93.10;;;;;;4960152;28;20169;-78
2022/03/25 09:56:43;;;;;;;33.40;16.73;;;12.60;93.40;;;;;;4956433;29;20542;-79
2022/03/25 09:59:09;;;;;;;33.17;17.85;;;12.70;90.70;;;;;;4957935;29;20248;-80
2022/03/25 10:01:35;;;;;;;30.02;16.75;;;12.90;90.90;;;;;;4957735;28;20180;-80
2022/03/25 10:04:02;;;;;;;30.08;16.45;;;13.10;90.60;;;;;;4958094;28;20513;-79
2022/03/25 10:06:28;;;;;;;27.95;17.35;;;13.20;90.50;;;;;;4957647;28;20207;-79
2022/03/25 10:09:02;;;;;;;35.25;17.98;;;13.40;89.90;;;;;;4958030;28;20252;-81
2022/03/25 10:11:33;;;;;;;31.00;18.10;;;13.60;90.90;;;;;;4957279;28;20182;-82
2022/03/25 10:14:23;;;;;;;35.92;17.63;;;13.80;89.70;;;;;;4957019;28;20221;-82
2022/03/25 10:16:53;;;;;;;28.40;17.33;;;13.80;87.70;;;;;;4977189;28;20262;-82
2022/03/25 10:19:23;;;;;;;28.60;18.30;;;13.90;90.60;;;;;;4977016;28;20172;-79
2022/03/25 10:22:09;;;;;;;35.38;19.40;;;14.00;88.10;;;;;;4977011;28;20196;-80
2022/03/25 10:24:40;;;;;;;35.15;19.05;;;14.00;88.70;;;;;;4976881;28;20657;-79
2022/03/25 10:27:07;;;;;;;33.85;18.67;;;14.10;88.40;;;;;;4977237;28;20259;-79
2022/03/25 10:29:34;;;;;;;33.67;19.58;;;14.20;90.30;;;;;;4970536;28;20232;-79
2022/03/25 10:32:11;;;;;;;38.47;19.90;;;14.10;90.30;;;;;;4977112;28;20177;-79
2022/03/25 10:34:39;;;;;;;34.17;22.02;;;14.20;90.10;;;;;;4976926;28;20235;-79
2022/03/25 10:37:11;;;;;;;36.88;22.27;;;14.20;90.50;;;;;;4976525;28;20248;-79
2022/03/25 10:39:38;;;;;;;32.40;21.67;;;14.30;90.50;;;;;;4975400;28;20176;-80
2022/03/25 10:42:08;;;;;;;39.38;22.20;;;14.60;86.70;;;;;;4976225;28;20168;-78
2022/03/25 10:44:41;;;;;;;38.50;21.30;;;14.70;87.20;;;;;;4976951;28;20188;-79
2022/03/25 10:47:16;;;;;;;32.60;20.73;;;14.80;87.40;;;;;;4975112;28;20224;-79
2022/03/25 10:49:44;;;;;;;36.78;21.92;;;14.90;86.30;;;;;;4938552;29;20236;-81
2022/03/25 10:52:31;;;;;;;33.88;21.05;;;14.80;83.70;;;;;;4936653;29;20182;-81
2022/03/25 10:55:20;;;;;;;33.75;22.08;;;14.80;86.50;;;;;;4937979;29;20166;-79
2022/03/25 10:57:58;;;;;;;35.70;22.58;;;14.90;86.60;;;;;;4937820;29;20174;-79
2022/03/25 11:00:25;;;;;;;33.90;23.38;;;15.10;85.60;;;;;;4938051;29;20601;-79
2022/03/25 11:02:51;;;;;;;36.50;23.75;;;15.20;86.20;;;;;;4937856;29;20498;-78
2022/03/25 11:05:17;;;;;;;36.03;23.02;;;15.30;85.20;;;;;;4936587;29;20210;-79
2022/03/25 11:07:45;;;;;;;34.65;23.38;;;15.30;85.20;;;;;;4937752;29;20182;-79
2022/03/25 11:10:15;;;;;;;38.38;22.85;;;15.40;84.60;;;;;;4937666;29;20177;-80
2022/03/25 11:12:48;;;;;;;35.88;24.02;;;15.40;86.60;;;;;;4937708;29;20177;-82
2022/03/25 11:15:16;;;;;;;35.85;23.00;;;15.50;83.00;;;;;;4960391;28;20188;-80
2022/03/25 11:17:42;;;;;;;37.45;22.55;;;15.60;83.60;;;;;;4976328;28;20235;-81
2022/03/25 11:20:13;;;;;;;36.33;21.77;;;15.60;82.90;;;;;;4975884;28;20176;-83
2022/03/25 11:23:02;;;;;;;35.55;21.10;;;15.70;83.60;;;;;;4976121;28;20192;-82
2022/03/25 11:25:30;;;;;;;31.02;20.95;;;15.80;83.40;;;;;;4975798;28;20259;-82
2022/03/25 11:28:05;;;;;;;38.28;20.90;;;15.90;85.00;;;;;;4975757;28;20212;-81
2022/03/25 11:30:35;;;;;;;38.28;22.83;;;16.10;82.50;;;;;;4975925;28;20172;-81
2022/03/25 11:33:03;;;;;;;31.27;21.02;;;16.00;82.20;;;;;;4974608;28;20196;-82
2022/03/25 11:35:39;;;;;;;33.40;21.25;;;16.20;82.60;;;;;;4971099;28;20611;-79
2022/03/25 11:38:11;;;;;;;37.75;21.55;;;16.30;82.00;;;;;;4955948;28;20280;-79
2022/03/25 11:40:45;;;;;;;38.05;21.45;;;16.30;80.70;;;;;;4956831;28;20236;-79
2022/03/25 11:43:15;;;;;;;31.33;20.88;;;16.50;81.80;;;;;;4956011;28;20225;-82
2022/03/25 11:45:45;;;;;;;36.33;22.02;;;16.50;80.50;;;;;;4971255;28;20216;-82
2022/03/25 11:48:11;;;;;;;38.78;21.70;;;16.50;77.70;;;;;;4975668;28;20196;-83
2022/03/25 11:50:46;;;;;;;35.05;21.25;;;16.50;79.70;;;;;;4975871;28;20214;-84
2022/03/25 11:53:11;;;;;;;35.15;21.73;;;16.50;79.50;;;;;;4974882;28;20616;-83
2022/03/25 11:56:00;;;;;;;32.78;21.63;;;16.30;77.90;;;;;;4975598;28;20268;-82
2022/03/25 11:58:27;;;;;;;29.80;21.25;;;16.40;80.50;;;;;;4974902;28;20255;-81
2022/03/25 12:01:01;;;;;;;29.20;19.55;;;16.50;80.80;;;;;;4975598;28;20179;-82
2022/03/25 12:03:49;;;;;;;30.15;19.13;;;16.70;80.80;;;;;;4975333;28;20597;-81
2022/03/25 12:06:16;;;;;;;30.90;20.20;;;16.80;80.20;;;;;;4975504;28;20204;-83
2022/03/25 12:09:06;;;;;;;29.67;20.00;;;17.00;76.00;;;;;;4969797;28;20180;-82
2022/03/25 12:11:51;;;;;;;33.20;19.15;;;16.90;77.40;;;;;;4956025;28;20177;-81
2022/03/25 12:14:19;;;;;;;30.38;19.73;;;17.00;75.50;;;;;;4959372;28;20280;-82
2022/03/25 12:16:47;;;;;;;31.33;20.00;;;16.90;74.10;;;;;;4974999;28;20256;-80
2022/03/25 12:19:42;;;;;;;30.83;18.90;;;16.90;78.50;;;;;;4974907;28;20211;-82
2022/03/25 12:22:20;;;;;;;31.90;20.00;;;17.10;76.40;;;;;;4975019;28;20180;-82
2022/03/25 12:24:58;;;;;;;33.83;19.58;;;16.90;76.00;;;;;;4974975;28;20204;-82
2022/03/25 12:27:24;;;;;;;29.95;19.63;;;17.00;78.70;;;;;;4974803;28;20209;-81
2022/03/25 12:29:52;;;;;;;26.58;18.90;;;17.20;77.80;;;;;;4975281;28;20259;-80
2022/03/25 12:32:21;;;;;;;28.98;18.42;;;17.30;78.70;;;;;;4975548;28;20181;-81
2022/03/25 12:35:07;;;;;;;30.85;19.17;;;17.40;75.00;;;;;;4975340;28;20177;-81
2022/03/25 12:37:39;;;;;;;29.55;18.73;;;17.60;76.00;;;;;;4974408;28;20220;-82
2022/03/25 12:40:21;;;;;;;30.95;19.33;;;17.70;72.60;;;;;;4975077;28;20228;-83
2022/03/25 12:42:53;;;;;;;31.38;17.83;;;17.70;72.60;;;;;;4989684;28;20169;-83
2022/03/25 12:45:49;;;;;;;29.50;18.35;;;17.70;71.80;;;;;;4975001;28;20191;-82
2022/03/25 12:48:21;;;;;;;25.73;17.83;;;17.70;72.20;;;;;;4965944;28;20270;-82
2022/03/25 12:50:57;;;;;;;27.15;18.52;;;17.80;73.40;;;;;;4975049;28;20197;-82
2022/03/25 12:53:25;;;;;;;34.83;18.45;;;17.90;71.80;;;;;;4964959;28;20185;-83